sensor_id;sensor_type;location;lat;lon;timestamp;P1;durP1;ratioP1;P2;durP2;ratioP2
41903;SDS011;27586;51.124;4.182;2023-03-13T00:01:35;20.80;;;6.55;;
41903;SDS011;27586;51.124;4.182;2023-03-13T00:04:06;19.33;;;6.05;;
41903;SDS011;27586;51.124;4.182;2023-03-13T00:06:33;16.73;;;5.85;;
41903;SDS011;27586;51.124;4.182;2023-03-13T00:09:00;13.73;;;6.43;;
41903;SDS011;27586;51.124;4.182;2023-03-13T00:11:27;18.75;;;6.40;;
41903;SDS011;27586;51.124;4.182;2023-03-13T00:13:53;18.52;;;6.60;;
41903;SDS011;27586;51.124;4.182;2023-03-13T00:16:20;15.40;;;6.38;;
41903;SDS011;27586;51.124;4.182;2023-03-13T00:18:46;21.80;;;6.68;;
41903;SDS011;27586;51.124;4.182;2023-03-13T00:21:13;16.13;;;6.50;;
41903;SDS011;27586;51.124;4.182;2023-03-13T00:23:39;13.93;;;6.57;;
41903;SDS011;27586;51.124;4.182;2023-03-13T00:26:06;16.63;;;6.63;;
41903;SDS011;27586;51.124;4.182;2023-03-13T00:28:33;18.10;;;7.28;;
41903;SDS011;27586;51.124;4.182;2023-03-13T00:31:01;17.63;;;6.97;;
41903;SDS011;27586;51.124;4.182;2023-03-13T00:33:32;17.77;;;6.75;;
41903;SDS011;27586;51.124;4.182;2023-03-13T00:36:03;17.70;;;7.00;;
41903;SDS011;27586;51.124;4.182;2023-03-13T00:38:31;21.48;;;7.20;;
41903;SDS011;27586;51.124;4.182;2023-03-13T00:41:04;17.38;;;6.68;;
41903;SDS011;27586;51.124;4.182;2023-03-13T00:43:41;17.73;;;7.10;;
41903;SDS011;27586;51.124;4.182;2023-03-13T00:46:08;15.85;;;6.85;;
41903;SDS011;27586;51.124;4.182;2023-03-13T00:48:35;16.33;;;6.72;;
41903;SDS011;27586;51.124;4.182;2023-03-13T00:51:01;13.25;;;6.65;;
41903;SDS011;27586;51.124;4.182;2023-03-13T00:53:28;17.75;;;7.18;;
41903;SDS011;27586;51.124;4.182;2023-03-13T00:55:58;16.92;;;6.78;;
41903;SDS011;27586;51.124;4.182;2023-03-13T00:58:27;17.38;;;7.55;;
41903;SDS011;27586;51.124;4.182;2023-03-13T01:00:53;15.80;;;7.30;;
41903;SDS011;27586;51.124;4.182;2023-03-13T01:03:21;14.75;;;7.55;;
41903;SDS011;27586;51.124;4.182;2023-03-13T01:05:58;17.70;;;7.38;;
41903;SDS011;27586;51.124;4.182;2023-03-13T01:08:27;14.50;;;7.82;;
41903;SDS011;27586;51.124;4.182;2023-03-13T01:11:00;17.77;;;7.90;;
41903;SDS011;27586;51.124;4.182;2023-03-13T01:13:28;16.98;;;7.75;;
41903;SDS011;27586;51.124;4.182;2023-03-13T01:15:56;13.60;;;7.90;;
41903;SDS011;27586;51.124;4.182;2023-03-13T01:18:26;12.82;;;7.50;;
41903;SDS011;27586;51.124;4.182;2023-03-13T01:20:51;17.35;;;8.63;;
41903;SDS011;27586;51.124;4.182;2023-03-13T01:23:17;16.80;;;8.65;;
41903;SDS011;27586;51.124;4.182;2023-03-13T01:25:43;14.90;;;8.38;;
41903;SDS011;27586;51.124;4.182;2023-03-13T01:28:09;16.30;;;8.98;;
41903;SDS011;27586;51.124;4.182;2023-03-13T01:30:35;17.02;;;9.05;;
41903;SDS011;27586;51.124;4.182;2023-03-13T01:33:00;16.88;;;9.57;;
41903;SDS011;27586;51.124;4.182;2023-03-13T01:35:26;13.73;;;9.10;;
41903;SDS011;27586;51.124;4.182;2023-03-13T01:37:52;14.80;;;9.43;;
41903;SDS011;27586;51.124;4.182;2023-03-13T01:40:17;13.52;;;8.95;;
41903;SDS011;27586;51.124;4.182;2023-03-13T01:42:50;14.60;;;9.10;;
41903;SDS011;27586;51.124;4.182;2023-03-13T01:48:21;14.07;;;8.45;;
41903;SDS011;27586;51.124;4.182;2023-03-13T01:50:51;15.10;;;7.93;;
41903;SDS011;27586;51.124;4.182;2023-03-13T01:53:19;13.45;;;8.43;;
41903;SDS011;27586;51.124;4.182;2023-03-13T01:55:44;13.20;;;8.15;;
41903;SDS011;27586;51.124;4.182;2023-03-13T01:58:11;14.10;;;8.55;;
41903;SDS011;27586;51.124;4.182;2023-03-13T02:00:37;13.68;;;8.45;;
41903;SDS011;27586;51.124;4.182;2023-03-13T02:03:08;14.15;;;9.10;;
41903;SDS011;27586;51.124;4.182;2023-03-13T02:05:36;16.13;;;8.70;;
41903;SDS011;27586;51.124;4.182;2023-03-13T02:08:05;14.07;;;8.25;;
41903;SDS011;27586;51.124;4.182;2023-03-13T02:11:07;12.75;;;8.45;;
41903;SDS011;27586;51.124;4.182;2023-03-13T02:13:43;13.57;;;7.60;;
41903;SDS011;27586;51.124;4.182;2023-03-13T02:16:09;10.82;;;7.78;;
41903;SDS011;27586;51.124;4.182;2023-03-13T02:18:35;9.73;;;7.50;;
41903;SDS011;27586;51.124;4.182;2023-03-13T02:21:17;10.65;;;7.35;;
41903;SDS011;27586;51.124;4.182;2023-03-13T02:23:50;11.48;;;6.57;;
41903;SDS011;27586;51.124;4.182;2023-03-13T02:26:24;10.38;;;6.72;;
41903;SDS011;27586;51.124;4.182;2023-03-13T02:28:50;9.35;;;6.53;;
41903;SDS011;27586;51.124;4.182;2023-03-13T02:31:15;9.48;;;6.72;;
41903;SDS011;27586;51.124;4.182;2023-03-13T02:33:41;9.43;;;6.70;;
41903;SDS011;27586;51.124;4.182;2023-03-13T02:36:08;9.77;;;7.53;;
41903;SDS011;27586;51.124;4.182;2023-03-13T02:38:42;10.60;;;7.40;;
41903;SDS011;27586;51.124;4.182;2023-03-13T02:41:15;10.48;;;7.90;;
41903;SDS011;27586;51.124;4.182;2023-03-13T02:43:42;9.25;;;7.95;;
41903;SDS011;27586;51.124;4.182;2023-03-13T02:46:17;8.88;;;7.53;;
41903;SDS011;27586;51.124;4.182;2023-03-13T02:48:46;10.93;;;8.38;;
41903;SDS011;27586;51.124;4.182;2023-03-13T02:51:30;13.25;;;8.43;;
41903;SDS011;27586;51.124;4.182;2023-03-13T02:54:04;12.27;;;8.52;;
41903;SDS011;27586;51.124;4.182;2023-03-13T02:56:34;11.32;;;9.00;;
41903;SDS011;27586;51.124;4.182;2023-03-13T02:59:02;12.00;;;9.65;;
41903;SDS011;27586;51.124;4.182;2023-03-13T03:01:27;10.88;;;9.05;;
41903;SDS011;27586;51.124;4.182;2023-03-13T03:03:53;10.63;;;9.30;;
41903;SDS011;27586;51.124;4.182;2023-03-13T03:06:19;11.07;;;9.90;;
41903;SDS011;27586;51.124;4.182;2023-03-13T03:08:45;11.13;;;9.98;;
41903;SDS011;27586;51.124;4.182;2023-03-13T03:11:10;10.52;;;9.50;;
41903;SDS011;27586;51.124;4.182;2023-03-13T03:13:36;10.98;;;9.60;;
41903;SDS011;27586;51.124;4.182;2023-03-13T03:16:09;11.05;;;9.25;;
41903;SDS011;27586;51.124;4.182;2023-03-13T03:18:37;11.65;;;9.65;;
41903;SDS011;27586;51.124;4.182;2023-03-13T03:21:03;10.55;;;9.13;;
41903;SDS011;27586;51.124;4.182;2023-03-13T03:23:33;12.20;;;9.02;;
41903;SDS011;27586;51.124;4.182;2023-03-13T03:25:59;9.45;;;8.40;;
41903;SDS011;27586;51.124;4.182;2023-03-13T03:28:25;10.48;;;8.48;;
41903;SDS011;27586;51.124;4.182;2023-03-13T03:30:51;9.32;;;8.40;;
41903;SDS011;27586;51.124;4.182;2023-03-13T03:33:18;10.77;;;7.97;;
41903;SDS011;27586;51.124;4.182;2023-03-13T03:35:48;8.73;;;7.80;;
41903;SDS011;27586;51.124;4.182;2023-03-13T03:38:14;11.45;;;7.75;;
41903;SDS011;27586;51.124;4.182;2023-03-13T03:40:40;8.45;;;7.50;;
41903;SDS011;27586;51.124;4.182;2023-03-13T03:43:06;8.20;;;7.38;;
41903;SDS011;27586;51.124;4.182;2023-03-13T03:45:32;7.90;;;7.10;;
41903;SDS011;27586;51.124;4.182;2023-03-13T03:47:57;8.90;;;7.50;;
41903;SDS011;27586;51.124;4.182;2023-03-13T03:50:24;8.95;;;7.32;;
41903;SDS011;27586;51.124;4.182;2023-03-13T03:52:50;9.13;;;6.88;;
41903;SDS011;27586;51.124;4.182;2023-03-13T03:55:16;8.15;;;7.10;;
41903;SDS011;27586;51.124;4.182;2023-03-13T03:57:43;8.27;;;6.80;;
41903;SDS011;27586;51.124;4.182;2023-03-13T04:00:09;8.40;;;6.55;;
41903;SDS011;27586;51.124;4.182;2023-03-13T04:02:40;8.48;;;6.40;;
41903;SDS011;27586;51.124;4.182;2023-03-13T04:05:06;9.35;;;6.00;;
41903;SDS011;27586;51.124;4.182;2023-03-13T04:07:31;9.25;;;6.05;;
41903;SDS011;27586;51.124;4.182;2023-03-13T04:09:57;5.93;;;5.32;;
41903;SDS011;27586;51.124;4.182;2023-03-13T04:12:23;6.38;;;5.40;;
41903;SDS011;27586;51.124;4.182;2023-03-13T04:14:48;7.88;;;4.68;;
41903;SDS011;27586;51.124;4.182;2023-03-13T04:17:14;6.55;;;4.55;;
41903;SDS011;27586;51.124;4.182;2023-03-13T04:19:40;7.55;;;4.60;;
41903;SDS011;27586;51.124;4.182;2023-03-13T04:22:06;6.25;;;4.75;;
41903;SDS011;27586;51.124;4.182;2023-03-13T04:24:32;6.20;;;4.15;;
41903;SDS011;27586;51.124;4.182;2023-03-13T04:26:57;8.32;;;4.60;;
41903;SDS011;27586;51.124;4.182;2023-03-13T04:29:23;6.57;;;4.32;;
41903;SDS011;27586;51.124;4.182;2023-03-13T04:31:49;8.32;;;4.40;;
41903;SDS011;27586;51.124;4.182;2023-03-13T04:34:15;6.65;;;4.30;;
41903;SDS011;27586;51.124;4.182;2023-03-13T04:36:41;7.65;;;4.43;;
41903;SDS011;27586;51.124;4.182;2023-03-13T04:39:07;6.68;;;3.90;;
41903;SDS011;27586;51.124;4.182;2023-03-13T04:41:32;5.43;;;4.20;;
41903;SDS011;27586;51.124;4.182;2023-03-13T04:43:58;10.20;;;4.55;;
41903;SDS011;27586;51.124;4.182;2023-03-13T04:46:24;7.78;;;4.57;;
41903;SDS011;27586;51.124;4.182;2023-03-13T04:48:49;7.50;;;4.30;;
41903;SDS011;27586;51.124;4.182;2023-03-13T04:51:15;7.63;;;4.13;;
41903;SDS011;27586;51.124;4.182;2023-03-13T04:53:41;7.28;;;4.35;;
41903;SDS011;27586;51.124;4.182;2023-03-13T04:56:06;7.32;;;3.97;;
41903;SDS011;27586;51.124;4.182;2023-03-13T04:58:32;9.52;;;4.60;;
41903;SDS011;27586;51.124;4.182;2023-03-13T05:00:58;6.25;;;3.92;;
41903;SDS011;27586;51.124;4.182;2023-03-13T05:03:27;6.72;;;4.30;;
41903;SDS011;27586;51.124;4.182;2023-03-13T05:05:52;8.30;;;4.47;;
41903;SDS011;27586;51.124;4.182;2023-03-13T05:08:18;8.20;;;4.00;;
41903;SDS011;27586;51.124;4.182;2023-03-13T05:10:44;8.60;;;4.07;;
41903;SDS011;27586;51.124;4.182;2023-03-13T05:13:10;8.00;;;4.40;;
41903;SDS011;27586;51.124;4.182;2023-03-13T05:15:36;6.03;;;3.63;;
41903;SDS011;27586;51.124;4.182;2023-03-13T05:18:02;8.73;;;4.03;;
41903;SDS011;27586;51.124;4.182;2023-03-13T05:20:27;7.00;;;3.90;;
41903;SDS011;27586;51.124;4.182;2023-03-13T05:22:53;8.20;;;3.97;;
41903;SDS011;27586;51.124;4.182;2023-03-13T05:25:19;7.80;;;3.75;;
41903;SDS011;27586;51.124;4.182;2023-03-13T05:27:44;11.27;;;4.50;;
41903;SDS011;27586;51.124;4.182;2023-03-13T05:30:10;9.07;;;3.67;;
41903;SDS011;27586;51.124;4.182;2023-03-13T05:32:36;7.95;;;3.85;;
41903;SDS011;27586;51.124;4.182;2023-03-13T05:35:05;7.75;;;3.80;;
41903;SDS011;27586;51.124;4.182;2023-03-13T05:37:31;7.20;;;3.85;;
41903;SDS011;27586;51.124;4.182;2023-03-13T05:39:56;9.32;;;4.03;;
41903;SDS011;27586;51.124;4.182;2023-03-13T05:42:22;6.95;;;3.85;;
41903;SDS011;27586;51.124;4.182;2023-03-13T05:44:48;8.95;;;4.28;;
41903;SDS011;27586;51.124;4.182;2023-03-13T05:47:13;10.15;;;4.40;;
41903;SDS011;27586;51.124;4.182;2023-03-13T05:49:40;7.60;;;4.07;;
41903;SDS011;27586;51.124;4.182;2023-03-13T05:52:05;10.07;;;4.03;;
41903;SDS011;27586;51.124;4.182;2023-03-13T05:54:31;10.13;;;4.68;;
41903;SDS011;27586;51.124;4.182;2023-03-13T05:56:57;9.68;;;4.20;;
41903;SDS011;27586;51.124;4.182;2023-03-13T05:59:22;8.18;;;4.03;;
41903;SDS011;27586;51.124;4.182;2023-03-13T06:01:48;8.85;;;3.75;;
41903;SDS011;27586;51.124;4.182;2023-03-13T06:04:14;8.63;;;3.75;;
41903;SDS011;27586;51.124;4.182;2023-03-13T06:06:39;7.18;;;3.85;;
41903;SDS011;27586;51.124;4.182;2023-03-13T06:09:05;6.63;;;3.70;;
41903;SDS011;27586;51.124;4.182;2023-03-13T06:11:31;7.13;;;3.70;;
41903;SDS011;27586;51.124;4.182;2023-03-13T06:13:57;7.82;;;3.63;;
41903;SDS011;27586;51.124;4.182;2023-03-13T06:16:22;8.27;;;3.97;;
41903;SDS011;27586;51.124;4.182;2023-03-13T06:18:48;7.93;;;3.78;;
41903;SDS011;27586;51.124;4.182;2023-03-13T06:21:13;9.50;;;3.60;;
41903;SDS011;27586;51.124;4.182;2023-03-13T06:23:39;9.15;;;4.18;;
41903;SDS011;27586;51.124;4.182;2023-03-13T06:26:06;11.38;;;3.97;;
41903;SDS011;27586;51.124;4.182;2023-03-13T06:28:32;7.95;;;3.88;;
41903;SDS011;27586;51.124;4.182;2023-03-13T06:31:01;9.35;;;3.78;;
41903;SDS011;27586;51.124;4.182;2023-03-13T06:33:28;12.07;;;4.07;;
41903;SDS011;27586;51.124;4.182;2023-03-13T06:35:54;11.63;;;3.83;;
41903;SDS011;27586;51.124;4.182;2023-03-13T06:38:20;8.18;;;3.92;;
41903;SDS011;27586;51.124;4.182;2023-03-13T06:40:46;9.77;;;4.05;;
41903;SDS011;27586;51.124;4.182;2023-03-13T06:43:12;12.18;;;4.03;;
41903;SDS011;27586;51.124;4.182;2023-03-13T06:45:37;7.78;;;3.60;;
41903;SDS011;27586;51.124;4.182;2023-03-13T06:48:03;7.95;;;3.67;;
41903;SDS011;27586;51.124;4.182;2023-03-13T06:50:29;10.23;;;3.88;;
41903;SDS011;27586;51.124;4.182;2023-03-13T06:52:55;10.27;;;4.22;;
41903;SDS011;27586;51.124;4.182;2023-03-13T06:55:21;9.20;;;4.07;;
41903;SDS011;27586;51.124;4.182;2023-03-13T06:57:51;10.05;;;3.92;;
41903;SDS011;27586;51.124;4.182;2023-03-13T07:00:17;7.40;;;3.65;;
41903;SDS011;27586;51.124;4.182;2023-03-13T07:02:43;9.30;;;4.03;;
41903;SDS011;27586;51.124;4.182;2023-03-13T07:05:09;10.25;;;3.90;;
41903;SDS011;27586;51.124;4.182;2023-03-13T07:07:35;8.40;;;3.60;;
41903;SDS011;27586;51.124;4.182;2023-03-13T07:10:00;9.10;;;3.83;;
41903;SDS011;27586;51.124;4.182;2023-03-13T07:12:26;10.95;;;5.03;;
41903;SDS011;27586;51.124;4.182;2023-03-13T07:14:52;7.80;;;3.53;;
41903;SDS011;27586;51.124;4.182;2023-03-13T07:17:18;9.00;;;3.20;;
41903;SDS011;27586;51.124;4.182;2023-03-13T07:19:44;9.30;;;3.80;;
41903;SDS011;27586;51.124;4.182;2023-03-13T07:22:09;9.25;;;3.55;;
41903;SDS011;27586;51.124;4.182;2023-03-13T07:24:35;10.73;;;3.83;;
41903;SDS011;27586;51.124;4.182;2023-03-13T07:27:01;11.55;;;3.97;;
41903;SDS011;27586;51.124;4.182;2023-03-13T07:29:26;7.38;;;3.28;;
41903;SDS011;27586;51.124;4.182;2023-03-13T07:31:52;9.05;;;3.42;;
41903;SDS011;27586;51.124;4.182;2023-03-13T07:34:18;11.40;;;3.67;;
41903;SDS011;27586;51.124;4.182;2023-03-13T07:36:43;9.43;;;3.80;;
41903;SDS011;27586;51.124;4.182;2023-03-13T07:39:09;8.40;;;3.70;;
41903;SDS011;27586;51.124;4.182;2023-03-13T07:41:35;9.80;;;3.67;;
41903;SDS011;27586;51.124;4.182;2023-03-13T07:44:00;8.45;;;3.40;;
41903;SDS011;27586;51.124;4.182;2023-03-13T07:46:26;7.30;;;3.67;;
41903;SDS011;27586;51.124;4.182;2023-03-13T07:48:52;10.18;;;3.53;;
41903;SDS011;27586;51.124;4.182;2023-03-13T07:51:20;9.02;;;3.50;;
41903;SDS011;27586;51.124;4.182;2023-03-13T07:53:47;7.90;;;3.45;;
41903;SDS011;27586;51.124;4.182;2023-03-13T07:56:13;6.55;;;3.08;;
41903;SDS011;27586;51.124;4.182;2023-03-13T07:58:41;6.78;;;2.92;;
41903;SDS011;27586;51.124;4.182;2023-03-13T08:01:26;6.45;;;2.80;;
41903;SDS011;27586;51.124;4.182;2023-03-13T08:03:52;6.78;;;3.35;;
41903;SDS011;27586;51.124;4.182;2023-03-13T08:06:21;7.55;;;3.08;;
41903;SDS011;27586;51.124;4.182;2023-03-13T08:08:48;7.53;;;3.28;;
41903;SDS011;27586;51.124;4.182;2023-03-13T08:11:16;6.35;;;3.08;;
41903;SDS011;27586;51.124;4.182;2023-03-13T08:13:44;8.65;;;3.10;;
41903;SDS011;27586;51.124;4.182;2023-03-13T08:16:14;8.30;;;3.05;;
41903;SDS011;27586;51.124;4.182;2023-03-13T08:18:54;5.43;;;2.78;;
41903;SDS011;27586;51.124;4.182;2023-03-13T08:21:23;10.38;;;3.60;;
41903;SDS011;27586;51.124;4.182;2023-03-13T08:23:58;8.30;;;3.08;;
41903;SDS011;27586;51.124;4.182;2023-03-13T08:26:28;8.52;;;3.20;;
41903;SDS011;27586;51.124;4.182;2023-03-13T08:28:59;8.13;;;3.13;;
41903;SDS011;27586;51.124;4.182;2023-03-13T08:31:36;8.05;;;3.58;;
41903;SDS011;27586;51.124;4.182;2023-03-13T08:34:12;8.20;;;3.55;;
41903;SDS011;27586;51.124;4.182;2023-03-13T08:36:39;9.38;;;3.65;;
41903;SDS011;27586;51.124;4.182;2023-03-13T08:39:06;11.80;;;4.10;;
41903;SDS011;27586;51.124;4.182;2023-03-13T08:41:36;8.00;;;3.33;;
41903;SDS011;27586;51.124;4.182;2023-03-13T08:44:04;5.93;;;2.83;;
41903;SDS011;27586;51.124;4.182;2023-03-13T08:46:32;7.10;;;3.13;;
41903;SDS011;27586;51.124;4.182;2023-03-13T08:48:59;5.25;;;3.25;;
41903;SDS011;27586;51.124;4.182;2023-03-13T08:51:25;6.13;;;3.10;;
41903;SDS011;27586;51.124;4.182;2023-03-13T08:53:52;5.90;;;3.13;;
41903;SDS011;27586;51.124;4.182;2023-03-13T08:56:20;6.32;;;2.78;;
41903;SDS011;27586;51.124;4.182;2023-03-13T08:58:51;4.38;;;2.72;;
41903;SDS011;27586;51.124;4.182;2023-03-13T09:01:22;5.68;;;2.50;;
41903;SDS011;27586;51.124;4.182;2023-03-13T09:03:49;6.45;;;3.00;;
41903;SDS011;27586;51.124;4.182;2023-03-13T09:06:18;4.63;;;2.40;;
41903;SDS011;27586;51.124;4.182;2023-03-13T09:08:44;5.93;;;2.95;;
41903;SDS011;27586;51.124;4.182;2023-03-13T09:11:11;6.22;;;2.70;;
41903;SDS011;27586;51.124;4.182;2023-03-13T09:13:42;4.35;;;2.80;;
41903;SDS011;27586;51.124;4.182;2023-03-13T09:16:13;7.55;;;3.00;;
41903;SDS011;27586;51.124;4.182;2023-03-13T09:18:47;5.15;;;2.58;;
41903;SDS011;27586;51.124;4.182;2023-03-13T09:21:14;6.43;;;2.78;;
41903;SDS011;27586;51.124;4.182;2023-03-13T09:23:41;4.97;;;2.70;;
41903;SDS011;27586;51.124;4.182;2023-03-13T09:26:07;5.03;;;2.08;;
41903;SDS011;27586;51.124;4.182;2023-03-13T09:28:33;3.92;;;2.50;;
41903;SDS011;27586;51.124;4.182;2023-03-13T09:31:06;4.95;;;2.53;;
41903;SDS011;27586;51.124;4.182;2023-03-13T09:33:37;5.40;;;2.60;;
41903;SDS011;27586;51.124;4.182;2023-03-13T09:36:03;3.72;;;1.90;;
41903;SDS011;27586;51.124;4.182;2023-03-13T09:38:29;4.07;;;1.92;;
41903;SDS011;27586;51.124;4.182;2023-03-13T09:40:55;4.82;;;2.20;;
41903;SDS011;27586;51.124;4.182;2023-03-13T09:43:38;4.30;;;2.13;;
41903;SDS011;27586;51.124;4.182;2023-03-13T09:48:58;6.43;;;2.33;;
41903;SDS011;27586;51.124;4.182;2023-03-13T09:51:37;4.97;;;2.35;;
41903;SDS011;27586;51.124;4.182;2023-03-13T09:54:23;2.20;;;1.55;;
41903;SDS011;27586;51.124;4.182;2023-03-13T09:56:57;5.90;;;1.90;;
41903;SDS011;27586;51.124;4.182;2023-03-13T10:07:31;3.30;;;1.85;;
41903;SDS011;27586;51.124;4.182;2023-03-13T10:09:59;3.63;;;1.80;;
41903;SDS011;27586;51.124;4.182;2023-03-13T10:12:27;3.25;;;1.60;;
41903;SDS011;27586;51.124;4.182;2023-03-13T10:15:04;2.13;;;1.60;;
41903;SDS011;27586;51.124;4.182;2023-03-13T10:17:44;3.13;;;1.45;;
41903;SDS011;27586;51.124;4.182;2023-03-13T10:27:57;4.30;;;1.75;;
41903;SDS011;27586;51.124;4.182;2023-03-13T10:32:50;4.40;;;1.60;;
41903;SDS011;27586;51.124;4.182;2023-03-13T10:35:22;3.42;;;1.42;;
41903;SDS011;27586;51.124;4.182;2023-03-13T10:38:44;3.08;;;1.40;;
41903;SDS011;27586;51.124;4.182;2023-03-13T10:40:55;3.78;;;1.42;;
41903;SDS011;27586;51.124;4.182;2023-03-13T10:43:26;4.68;;;1.67;;
41903;SDS011;27586;51.124;4.182;2023-03-13T10:45:53;5.82;;;1.85;;
41903;SDS011;27586;51.124;4.182;2023-03-13T10:48:22;4.90;;;1.67;;
41903;SDS011;27586;51.124;4.182;2023-03-13T10:50:55;3.28;;;1.40;;
41903;SDS011;27586;51.124;4.182;2023-03-13T10:56:18;2.88;;;1.48;;
41903;SDS011;27586;51.124;4.182;2023-03-13T10:58:48;4.20;;;1.60;;
41903;SDS011;27586;51.124;4.182;2023-03-13T11:01:23;4.93;;;1.38;;
41903;SDS011;27586;51.124;4.182;2023-03-13T11:03:54;3.75;;;1.58;;
41903;SDS011;27586;51.124;4.182;2023-03-13T11:06:31;5.22;;;1.80;;
41903;SDS011;27586;51.124;4.182;2023-03-13T11:09:09;3.50;;;1.17;;
41903;SDS011;27586;51.124;4.182;2023-03-13T11:11:53;4.60;;;1.45;;
41903;SDS011;27586;51.124;4.182;2023-03-13T11:14:25;3.38;;;1.48;;
41903;SDS011;27586;51.124;4.182;2023-03-13T11:16:54;5.13;;;1.60;;
41903;SDS011;27586;51.124;4.182;2023-03-13T11:19:38;3.20;;;1.42;;
41903;SDS011;27586;51.124;4.182;2023-03-13T11:22:14;3.67;;;1.55;;
41903;SDS011;27586;51.124;4.182;2023-03-13T11:25:08;3.05;;;1.30;;
41903;SDS011;27586;51.124;4.182;2023-03-13T11:33:11;3.38;;;1.13;;
41903;SDS011;27586;51.124;4.182;2023-03-13T11:35:53;2.45;;;1.17;;
41903;SDS011;27586;51.124;4.182;2023-03-13T11:38:43;3.72;;;1.48;;
41903;SDS011;27586;51.124;4.182;2023-03-13T11:44:02;6.10;;;1.85;;
41903;SDS011;27586;51.124;4.182;2023-03-13T11:46:50;8.68;;;1.80;;
41903;SDS011;27586;51.124;4.182;2023-03-13T11:55:18;4.15;;;1.50;;
41903;SDS011;27586;51.124;4.182;2023-03-13T12:03:20;4.75;;;1.40;;
41903;SDS011;27586;51.124;4.182;2023-03-13T12:06:24;7.30;;;1.52;;
41903;SDS011;27586;51.124;4.182;2023-03-13T12:09:20;3.72;;;1.17;;
41903;SDS011;27586;51.124;4.182;2023-03-13T12:12:00;5.05;;;1.42;;
41903;SDS011;27586;51.124;4.182;2023-03-13T12:20:02;5.50;;;1.48;;
41903;SDS011;27586;51.124;4.182;2023-03-13T12:25:11;7.13;;;1.75;;
41903;SDS011;27586;51.124;4.182;2023-03-13T12:27:48;3.78;;;1.35;;
41903;SDS011;27586;51.124;4.182;2023-03-13T12:30:21;5.28;;;1.50;;
41903;SDS011;27586;51.124;4.182;2023-03-13T12:35:43;34.22;;;5.28;;
41903;SDS011;27586;51.124;4.182;2023-03-13T12:41:10;5.90;;;1.80;;
41903;SDS011;27586;51.124;4.182;2023-03-13T12:43:49;74.43;;;7.75;;
41903;SDS011;27586;51.124;4.182;2023-03-13T12:54:57;4.40;;;1.55;;
41903;SDS011;27586;51.124;4.182;2023-03-13T13:00:21;4.55;;;1.75;;
41903;SDS011;27586;51.124;4.182;2023-03-13T13:06:06;4.47;;;1.38;;
41903;SDS011;27586;51.124;4.182;2023-03-13T13:08:38;2.90;;;1.50;;
41903;SDS011;27586;51.124;4.182;2023-03-13T13:12:11;4.10;;;1.60;;
41903;SDS011;27586;51.124;4.182;2023-03-13T13:16:49;5.75;;;1.67;;
41903;SDS011;27586;51.124;4.182;2023-03-13T13:24:56;4.93;;;1.50;;
41903;SDS011;27586;51.124;4.182;2023-03-13T13:30:27;20.23;;;2.72;;
41903;SDS011;27586;51.124;4.182;2023-03-13T13:32:52;5.32;;;1.73;;
41903;SDS011;27586;51.124;4.182;2023-03-13T13:51:33;6.40;;;2.03;;
41903;SDS011;27586;51.124;4.182;2023-03-13T13:56:38;4.75;;;1.80;;
41903;SDS011;27586;51.124;4.182;2023-03-13T14:04:29;5.00;;;1.73;;
41903;SDS011;27586;51.124;4.182;2023-03-13T14:07:00;5.50;;;1.70;;
41903;SDS011;27586;51.124;4.182;2023-03-13T14:12:28;4.57;;;1.60;;
41903;SDS011;27586;51.124;4.182;2023-03-13T14:15:18;4.25;;;1.67;;
41903;SDS011;27586;51.124;4.182;2023-03-13T14:17:52;5.93;;;1.80;;
41903;SDS011;27586;51.124;4.182;2023-03-13T14:23:04;4.68;;;1.80;;
41903;SDS011;27586;51.124;4.182;2023-03-13T14:25:42;6.60;;;1.83;;
41903;SDS011;27586;51.124;4.182;2023-03-13T14:28:17;7.32;;;1.85;;
41903;SDS011;27586;51.124;4.182;2023-03-13T14:30:48;4.95;;;1.50;;
41903;SDS011;27586;51.124;4.182;2023-03-13T14:33:15;5.97;;;1.70;;
41903;SDS011;27586;51.124;4.182;2023-03-13T14:35:42;4.97;;;1.60;;
41903;SDS011;27586;51.124;4.182;2023-03-13T14:38:24;4.03;;;1.88;;
41903;SDS011;27586;51.124;4.182;2023-03-13T14:40:51;4.75;;;1.55;;
41903;SDS011;27586;51.124;4.182;2023-03-13T14:43:24;2.35;;;1.35;;
41903;SDS011;27586;51.124;4.182;2023-03-13T14:46:11;4.85;;;2.08;;
41903;SDS011;27586;51.124;4.182;2023-03-13T14:48:40;7.80;;;2.08;;
41903;SDS011;27586;51.124;4.182;2023-03-13T14:51:09;13.50;;;2.03;;
41903;SDS011;27586;51.124;4.182;2023-03-13T14:54:00;12.63;;;2.30;;
41903;SDS011;27586;51.124;4.182;2023-03-13T14:56:39;8.07;;;2.22;;
41903;SDS011;27586;51.124;4.182;2023-03-13T14:59:22;6.68;;;2.08;;
41903;SDS011;27586;51.124;4.182;2023-03-13T15:07:14;9.63;;;2.45;;
41903;SDS011;27586;51.124;4.182;2023-03-13T15:09:40;4.80;;;2.28;;
41903;SDS011;27586;51.124;4.182;2023-03-13T15:12:12;6.95;;;2.08;;
41903;SDS011;27586;51.124;4.182;2023-03-13T15:14:40;12.15;;;3.00;;
41903;SDS011;27586;51.124;4.182;2023-03-13T15:17:18;7.07;;;2.13;;
41903;SDS011;27586;51.124;4.182;2023-03-13T15:19:49;4.93;;;1.95;;
41903;SDS011;27586;51.124;4.182;2023-03-13T15:22:17;6.50;;;2.30;;
41903;SDS011;27586;51.124;4.182;2023-03-13T15:24:45;6.63;;;1.73;;
41903;SDS011;27586;51.124;4.182;2023-03-13T15:27:18;5.18;;;2.00;;
41903;SDS011;27586;51.124;4.182;2023-03-13T15:29:46;7.88;;;1.88;;
41903;SDS011;27586;51.124;4.182;2023-03-13T15:32:23;9.10;;;2.17;;
41903;SDS011;27586;51.124;4.182;2023-03-13T15:34:51;5.82;;;2.20;;
41903;SDS011;27586;51.124;4.182;2023-03-13T15:37:17;6.38;;;2.50;;
41903;SDS011;27586;51.124;4.182;2023-03-13T15:39:43;22.90;;;3.55;;
41903;SDS011;27586;51.124;4.182;2023-03-13T15:42:09;40.30;;;4.43;;
41903;SDS011;27586;51.124;4.182;2023-03-13T15:44:35;9.60;;;2.30;;
41903;SDS011;27586;51.124;4.182;2023-03-13T15:47:00;15.45;;;3.10;;
41903;SDS011;27586;51.124;4.182;2023-03-13T15:49:26;27.73;;;3.58;;
41903;SDS011;27586;51.124;4.182;2023-03-13T15:51:52;10.80;;;3.05;;
41903;SDS011;27586;51.124;4.182;2023-03-13T15:54:18;7.80;;;2.00;;
41903;SDS011;27586;51.124;4.182;2023-03-13T15:56:43;7.35;;;2.00;;
41903;SDS011;27586;51.124;4.182;2023-03-13T15:59:13;26.38;;;3.10;;
41903;SDS011;27586;51.124;4.182;2023-03-13T16:01:40;10.13;;;2.28;;
41903;SDS011;27586;51.124;4.182;2023-03-13T16:04:08;10.73;;;2.65;;
41903;SDS011;27586;51.124;4.182;2023-03-13T16:06:34;11.02;;;2.63;;
41903;SDS011;27586;51.124;4.182;2023-03-13T16:09:00;42.55;;;4.85;;
41903;SDS011;27586;51.124;4.182;2023-03-13T16:11:29;12.00;;;2.55;;
41903;SDS011;27586;51.124;4.182;2023-03-13T16:13:55;8.43;;;2.25;;
41903;SDS011;27586;51.124;4.182;2023-03-13T16:16:22;7.20;;;2.40;;
41903;SDS011;27586;51.124;4.182;2023-03-13T16:18:52;7.10;;;2.20;;
41903;SDS011;27586;51.124;4.182;2023-03-13T16:21:23;46.28;;;4.55;;
41903;SDS011;27586;51.124;4.182;2023-03-13T16:23:53;6.68;;;2.30;;
41903;SDS011;27586;51.124;4.182;2023-03-13T16:26:24;6.95;;;2.35;;
41903;SDS011;27586;51.124;4.182;2023-03-13T16:28:52;6.78;;;2.30;;
41903;SDS011;27586;51.124;4.182;2023-03-13T16:31:29;6.95;;;2.60;;
41903;SDS011;27586;51.124;4.182;2023-03-13T16:33:56;15.63;;;3.13;;
41903;SDS011;27586;51.124;4.182;2023-03-13T16:36:26;31.55;;;4.40;;
41903;SDS011;27586;51.124;4.182;2023-03-13T16:38:57;22.25;;;4.63;;
41903;SDS011;27586;51.124;4.182;2023-03-13T16:41:25;9.60;;;5.68;;
41903;SDS011;27586;51.124;4.182;2023-03-13T16:43:51;10.10;;;4.20;;
41903;SDS011;27586;51.124;4.182;2023-03-13T16:46:22;7.78;;;4.25;;
41903;SDS011;27586;51.124;4.182;2023-03-13T16:48:53;40.78;;;5.13;;
41903;SDS011;27586;51.124;4.182;2023-03-13T16:51:23;7.20;;;2.40;;
41903;SDS011;27586;51.124;4.182;2023-03-13T16:53:50;6.85;;;2.25;;
41903;SDS011;27586;51.124;4.182;2023-03-13T16:56:22;8.45;;;2.40;;
41903;SDS011;27586;51.124;4.182;2023-03-13T16:58:52;7.93;;;1.90;;